• pl
  • eng

Awiacja
NEWS
last updated: 12.09.2019 14:49<\/div>
Dear users,
We would like to inform you that from September 2nd a test form of the GAFOR forecast is available on our webpage. Please send your comments and suggestions to gafor@imgw.pl that will contribute to product development.
Click on the bold red name to decode a message. 23:01 14.11.2019
  • WIND
  • SIGNIFICANT EURO
  • SIGNIFICANT
  • SIGMET
  • AIRMET
  • TAF FC
  • TAF FT
  • METAR GG30
  • METAR GG00


METAR EPBY 142200Z 11011KT 090V150 9999 OVC012 04/01 Q1016 =

METAR EPGD 142200Z 12006KT 5000 BR OVC010 02/02 Q1018 =

METAR EPKK 142200Z 06009KT 3000 BR OVC004 07/06 Q1013 =

METAR EPKT 142200Z 10011KT 9000 OVC003 06/05 Q1012 =

METAR EPLB 142200Z 04006KT 0800 R25/1000 -DZ FG OVC002 08/08 Q1015 =

METAR EPLL 142200Z 07008KT 4900 BR OVC006 04/03 Q1015 =

METAR EPMO 142200Z 06005KT 8000 SCT030 02/01 Q1016 =

METAR EPPO 142200Z 11013KT 9000 OVC009 04/02 Q1014 =

METAR EPRA 142200Z NIL=

METAR EPRZ 142200Z 06003KT 0500 R27/1100N -DZ FG OVC001 08/08 Q1014 =

METAR EPSC 142200Z 10010KT 070V130 9999 BKN008 OVC011 04/01 Q1014 =

METAR EPSY 142200Z 04004KT 9999 OVC016 03/02 Q1017=

METAR EPWA 142200Z 05008KT 9999 BKN028 04/03 Q1016 TEMPO BKN015=

METAR EPWR 142200Z 11012KT 6000 BKN005 04/03 Q1012 =

METAR EPZG 142200Z NIL=
Awiacja.imgw.pl jest pogodowym serwisem informacyjnym
Instytutu Meteorologii i Gospodarki Wodnej Państwowego Instytutu Badawczego.
Copyright IMGW PIB 2009-2019© Wszelkie prawa zastrzeżone.